sensor_id;sensor_type;location;lat;lon;timestamp;P1;durP1;ratioP1;P2;durP2;ratioP2
65092;SDS011;52025;50.288;2.794;2023-06-01T04:42:17;29.00;;;15.70;;
65092;SDS011;52025;50.288;2.794;2023-06-01T04:54:16;30.13;;;15.70;;
65092;SDS011;52025;50.288;2.794;2023-06-01T04:57:12;30.25;;;17.85;;
65092;SDS011;52025;50.288;2.794;2023-06-01T04:59:43;27.00;;;15.30;;
65092;SDS011;52025;50.288;2.794;2023-06-01T05:11:24;28.17;;;16.30;;
65092;SDS011;52025;50.288;2.794;2023-06-01T05:13:49;33.47;;;18.52;;
65092;SDS011;52025;50.288;2.794;2023-06-01T05:19:52;31.40;;;17.98;;
65092;SDS011;52025;50.288;2.794;2023-06-01T05:25:13;31.23;;;17.60;;
65092;SDS011;52025;50.288;2.794;2023-06-01T05:27:42;30.90;;;18.67;;
65092;SDS011;52025;50.288;2.794;2023-06-01T05:30:10;28.02;;;18.13;;
65092;SDS011;52025;50.288;2.794;2023-06-01T05:32:36;28.83;;;17.33;;
65092;SDS011;52025;50.288;2.794;2023-06-01T05:35:03;27.70;;;18.00;;
65092;SDS011;52025;50.288;2.794;2023-06-01T05:37:29;31.63;;;20.85;;
65092;SDS011;52025;50.288;2.794;2023-06-01T05:39:57;35.90;;;19.65;;
65092;SDS011;52025;50.288;2.794;2023-06-01T05:42:23;29.70;;;19.40;;
65092;SDS011;52025;50.288;2.794;2023-06-01T05:44:48;29.52;;;17.77;;
65092;SDS011;52025;50.288;2.794;2023-06-01T05:47:25;30.25;;;18.77;;
65092;SDS011;52025;50.288;2.794;2023-06-01T05:50:08;30.98;;;19.10;;
65092;SDS011;52025;50.288;2.794;2023-06-01T05:52:36;30.50;;;19.77;;
65092;SDS011;52025;50.288;2.794;2023-06-01T05:55:12;35.50;;;19.92;;
65092;SDS011;52025;50.288;2.794;2023-06-01T05:57:37;37.95;;;20.80;;
65092;SDS011;52025;50.288;2.794;2023-06-01T06:00:06;35.78;;;20.75;;
65092;SDS011;52025;50.288;2.794;2023-06-01T06:02:38;37.08;;;20.83;;
65092;SDS011;52025;50.288;2.794;2023-06-01T06:08:13;33.25;;;18.92;;
65092;SDS011;52025;50.288;2.794;2023-06-01T06:10:38;32.00;;;18.90;;
65092;SDS011;52025;50.288;2.794;2023-06-01T06:13:31;36.38;;;21.17;;
65092;SDS011;52025;50.288;2.794;2023-06-01T06:16:00;36.22;;;23.63;;
65092;SDS011;52025;50.288;2.794;2023-06-01T06:18:25;34.70;;;19.38;;
65092;SDS011;52025;50.288;2.794;2023-06-01T06:20:50;29.63;;;17.10;;
65092;SDS011;52025;50.288;2.794;2023-06-01T06:23:16;31.05;;;19.25;;
65092;SDS011;52025;50.288;2.794;2023-06-01T06:25:41;31.23;;;17.90;;
65092;SDS011;52025;50.288;2.794;2023-06-01T06:28:16;31.83;;;19.33;;
65092;SDS011;52025;50.288;2.794;2023-06-01T06:30:44;31.63;;;18.17;;
65092;SDS011;52025;50.288;2.794;2023-06-01T06:33:12;36.38;;;22.77;;
65092;SDS011;52025;50.288;2.794;2023-06-01T06:35:37;42.47;;;25.10;;
65092;SDS011;52025;50.288;2.794;2023-06-01T06:38:04;34.80;;;20.67;;
65092;SDS011;52025;50.288;2.794;2023-06-01T06:40:31;36.03;;;19.52;;
65092;SDS011;52025;50.288;2.794;2023-06-01T06:42:57;31.25;;;20.55;;
65092;SDS011;52025;50.288;2.794;2023-06-01T06:45:37;38.92;;;22.27;;
65092;SDS011;52025;50.288;2.794;2023-06-01T06:48:33;31.40;;;18.83;;
65092;SDS011;52025;50.288;2.794;2023-06-01T06:54:51;37.78;;;22.17;;
65092;SDS011;52025;50.288;2.794;2023-06-01T06:57:36;31.85;;;18.92;;
65092;SDS011;52025;50.288;2.794;2023-06-01T07:00:05;40.90;;;25.15;;
65092;SDS011;52025;50.288;2.794;2023-06-01T07:02:33;36.20;;;19.90;;
65092;SDS011;52025;50.288;2.794;2023-06-01T07:05:05;31.38;;;18.73;;
65092;SDS011;52025;50.288;2.794;2023-06-01T07:07:31;41.60;;;23.08;;
65092;SDS011;52025;50.288;2.794;2023-06-01T07:09:56;36.15;;;20.65;;
65092;SDS011;52025;50.288;2.794;2023-06-01T07:12:24;34.78;;;19.85;;
65092;SDS011;52025;50.288;2.794;2023-06-01T07:14:52;39.80;;;22.73;;
65092;SDS011;52025;50.288;2.794;2023-06-01T07:17:23;42.42;;;25.88;;
65092;SDS011;52025;50.288;2.794;2023-06-01T07:19:51;43.05;;;26.38;;
65092;SDS011;52025;50.288;2.794;2023-06-01T07:22:19;46.17;;;23.13;;
65092;SDS011;52025;50.288;2.794;2023-06-01T07:25:05;45.80;;;26.05;;
65092;SDS011;52025;50.288;2.794;2023-06-01T07:27:34;51.42;;;26.08;;
65092;SDS011;52025;50.288;2.794;2023-06-01T07:30:01;41.10;;;24.20;;
65092;SDS011;52025;50.288;2.794;2023-06-01T07:32:32;44.35;;;25.17;;
65092;SDS011;52025;50.288;2.794;2023-06-01T07:35:00;45.25;;;25.80;;
65092;SDS011;52025;50.288;2.794;2023-06-01T07:37:26;46.58;;;24.98;;
65092;SDS011;52025;50.288;2.794;2023-06-01T07:39:52;39.03;;;22.17;;
65092;SDS011;52025;50.288;2.794;2023-06-01T07:42:18;49.08;;;26.58;;
65092;SDS011;52025;50.288;2.794;2023-06-01T07:44:50;44.58;;;23.38;;
65092;SDS011;52025;50.288;2.794;2023-06-01T07:47:16;51.72;;;27.73;;
65092;SDS011;52025;50.288;2.794;2023-06-01T07:49:42;47.08;;;25.15;;
65092;SDS011;52025;50.288;2.794;2023-06-01T07:52:10;41.88;;;24.25;;
65092;SDS011;52025;50.288;2.794;2023-06-01T07:54:35;42.45;;;23.13;;
65092;SDS011;52025;50.288;2.794;2023-06-01T07:57:06;55.15;;;24.95;;
65092;SDS011;52025;50.288;2.794;2023-06-01T07:59:31;46.47;;;25.58;;
65092;SDS011;52025;50.288;2.794;2023-06-01T08:01:56;47.65;;;28.55;;
65092;SDS011;52025;50.288;2.794;2023-06-01T08:04:22;47.65;;;24.30;;
65092;SDS011;52025;50.288;2.794;2023-06-01T08:06:49;39.05;;;22.00;;
65092;SDS011;52025;50.288;2.794;2023-06-01T08:09:37;45.30;;;25.90;;
65092;SDS011;52025;50.288;2.794;2023-06-01T08:12:03;36.85;;;22.88;;
65092;SDS011;52025;50.288;2.794;2023-06-01T08:14:42;36.83;;;21.30;;
65092;SDS011;52025;50.288;2.794;2023-06-01T08:17:10;40.92;;;24.55;;
65092;SDS011;52025;50.288;2.794;2023-06-01T08:19:36;38.55;;;25.00;;
65092;SDS011;52025;50.288;2.794;2023-06-01T08:22:02;40.70;;;25.52;;
65092;SDS011;52025;50.288;2.794;2023-06-01T08:24:29;37.78;;;22.27;;
65092;SDS011;52025;50.288;2.794;2023-06-01T08:26:58;39.88;;;23.50;;
65092;SDS011;52025;50.288;2.794;2023-06-01T08:29:30;34.72;;;20.58;;
65092;SDS011;52025;50.288;2.794;2023-06-01T08:32:02;35.80;;;18.98;;
65092;SDS011;52025;50.288;2.794;2023-06-01T08:34:27;38.47;;;21.20;;
65092;SDS011;52025;50.288;2.794;2023-06-01T08:36:53;39.83;;;25.67;;
65092;SDS011;52025;50.288;2.794;2023-06-01T08:39:24;35.92;;;21.13;;
65092;SDS011;52025;50.288;2.794;2023-06-01T08:44:41;35.55;;;19.80;;
65092;SDS011;52025;50.288;2.794;2023-06-01T08:47:10;37.40;;;22.42;;
65092;SDS011;52025;50.288;2.794;2023-06-01T08:59:04;34.92;;;22.17;;
65092;SDS011;52025;50.288;2.794;2023-06-01T09:11:36;34.35;;;19.13;;
65092;SDS011;52025;50.288;2.794;2023-06-01T09:17:03;33.40;;;19.80;;
65092;SDS011;52025;50.288;2.794;2023-06-01T09:19:52;30.55;;;18.52;;
65092;SDS011;52025;50.288;2.794;2023-06-01T09:22:17;36.92;;;21.10;;
65092;SDS011;52025;50.288;2.794;2023-06-01T09:27:32;30.15;;;18.27;;
65092;SDS011;52025;50.288;2.794;2023-06-01T09:30:06;25.75;;;15.25;;
65092;SDS011;52025;50.288;2.794;2023-06-01T09:32:34;29.40;;;16.60;;
65092;SDS011;52025;50.288;2.794;2023-06-01T09:35:00;28.55;;;18.67;;
65092;SDS011;52025;50.288;2.794;2023-06-01T09:37:36;28.48;;;16.33;;
65092;SDS011;52025;50.288;2.794;2023-06-01T09:40:16;15.30;;;9.80;;
65092;SDS011;52025;50.288;2.794;2023-06-01T09:42:41;28.10;;;17.35;;
65092;SDS011;52025;50.288;2.794;2023-06-01T09:48:31;29.65;;;17.25;;
65092;SDS011;52025;50.288;2.794;2023-06-01T09:50:59;28.60;;;19.33;;
65092;SDS011;52025;50.288;2.794;2023-06-01T09:53:45;23.83;;;15.55;;
65092;SDS011;52025;50.288;2.794;2023-06-01T09:56:13;24.63;;;15.13;;
65092;SDS011;52025;50.288;2.794;2023-06-01T09:58:42;24.23;;;14.23;;
65092;SDS011;52025;50.288;2.794;2023-06-01T10:01:13;25.63;;;15.07;;
65092;SDS011;52025;50.288;2.794;2023-06-01T10:06:47;23.10;;;13.88;;
65092;SDS011;52025;50.288;2.794;2023-06-01T10:09:40;20.05;;;12.52;;
65092;SDS011;52025;50.288;2.794;2023-06-01T10:12:06;23.25;;;14.50;;
65092;SDS011;52025;50.288;2.794;2023-06-01T10:14:35;27.23;;;14.75;;
65092;SDS011;52025;50.288;2.794;2023-06-01T10:17:06;20.00;;;12.32;;
65092;SDS011;52025;50.288;2.794;2023-06-01T10:19:35;24.88;;;15.70;;
65092;SDS011;52025;50.288;2.794;2023-06-01T10:22:01;17.63;;;10.27;;
65092;SDS011;52025;50.288;2.794;2023-06-01T10:24:29;21.73;;;13.65;;
65092;SDS011;52025;50.288;2.794;2023-06-01T10:27:10;23.50;;;12.75;;
65092;SDS011;52025;50.288;2.794;2023-06-01T10:29:36;15.00;;;7.60;;
65092;SDS011;52025;50.288;2.794;2023-06-01T10:32:04;14.98;;;9.82;;
65092;SDS011;52025;50.288;2.794;2023-06-01T10:39:33;27.05;;;15.98;;
65092;SDS011;52025;50.288;2.794;2023-06-01T10:45:04;25.17;;;13.88;;
65092;SDS011;52025;50.288;2.794;2023-06-01T10:55:47;22.50;;;12.38;;
65092;SDS011;52025;50.288;2.794;2023-06-01T10:58:19;21.10;;;13.57;;
65092;SDS011;52025;50.288;2.794;2023-06-01T11:00:47;23.95;;;15.50;;
65092;SDS011;52025;50.288;2.794;2023-06-01T11:03:13;17.15;;;11.23;;
65092;SDS011;52025;50.288;2.794;2023-06-01T11:13:19;20.90;;;11.60;;
65092;SDS011;52025;50.288;2.794;2023-06-01T11:21:20;17.50;;;9.32;;
65092;SDS011;52025;50.288;2.794;2023-06-01T11:24:11;15.50;;;8.57;;
65092;SDS011;52025;50.288;2.794;2023-06-01T11:26:47;25.90;;;15.70;;
65092;SDS011;52025;50.288;2.794;2023-06-01T11:32:19;19.33;;;11.90;;
65092;SDS011;52025;50.288;2.794;2023-06-01T11:34:50;17.52;;;10.98;;
65092;SDS011;52025;50.288;2.794;2023-06-01T11:37:19;24.13;;;14.38;;
65092;SDS011;52025;50.288;2.794;2023-06-01T11:39:50;16.10;;;9.35;;
65092;SDS011;52025;50.288;2.794;2023-06-01T11:42:19;28.13;;;14.93;;
65092;SDS011;52025;50.288;2.794;2023-06-01T11:45:13;28.67;;;17.88;;
65092;SDS011;52025;50.288;2.794;2023-06-01T11:57:10;27.23;;;16.73;;
65092;SDS011;52025;50.288;2.794;2023-06-01T11:59:49;22.08;;;10.45;;
65092;SDS011;52025;50.288;2.794;2023-06-01T12:02:24;12.73;;;6.55;;
65092;SDS011;52025;50.288;2.794;2023-06-01T12:11:08;21.15;;;13.18;;
65092;SDS011;52025;50.288;2.794;2023-06-01T12:14:12;21.50;;;13.45;;
65092;SDS011;52025;50.288;2.794;2023-06-01T12:16:56;26.33;;;14.75;;
65092;SDS011;52025;50.288;2.794;2023-06-01T12:19:22;15.07;;;6.00;;
65092;SDS011;52025;50.288;2.794;2023-06-01T12:27:58;24.25;;;14.45;;
65092;SDS011;52025;50.288;2.794;2023-06-01T12:30:49;19.75;;;10.35;;
65092;SDS011;52025;50.288;2.794;2023-06-01T12:36:35;18.58;;;9.50;;
65092;SDS011;52025;50.288;2.794;2023-06-01T12:39:35;13.10;;;7.28;;
65092;SDS011;52025;50.288;2.794;2023-06-01T12:47:24;21.92;;;11.55;;
65092;SDS011;52025;50.288;2.794;2023-06-01T12:53:15;23.70;;;13.25;;
65092;SDS011;52025;50.288;2.794;2023-06-01T12:59:10;14.13;;;6.22;;
65092;SDS011;52025;50.288;2.794;2023-06-01T13:01:35;13.93;;;8.52;;
65092;SDS011;52025;50.288;2.794;2023-06-01T13:07:13;19.45;;;11.43;;
65092;SDS011;52025;50.288;2.794;2023-06-01T13:09:44;15.30;;;8.27;;
65092;SDS011;52025;50.288;2.794;2023-06-01T13:12:17;13.02;;;6.80;;
65092;SDS011;52025;50.288;2.794;2023-06-01T13:14:45;14.68;;;7.88;;
65092;SDS011;52025;50.288;2.794;2023-06-01T13:20:06;12.52;;;7.78;;
65092;SDS011;52025;50.288;2.794;2023-06-01T13:22:53;14.02;;;7.18;;
65092;SDS011;52025;50.288;2.794;2023-06-01T13:28:21;12.80;;;6.78;;
65092;SDS011;52025;50.288;2.794;2023-06-01T13:30:50;6.28;;;3.03;;
65092;SDS011;52025;50.288;2.794;2023-06-01T13:33:15;13.18;;;7.32;;
65092;SDS011;52025;50.288;2.794;2023-06-01T13:38:35;9.35;;;4.50;;
65092;SDS011;52025;50.288;2.794;2023-06-01T13:41:00;17.33;;;10.18;;
65092;SDS011;52025;50.288;2.794;2023-06-01T13:43:37;15.52;;;8.48;;
65092;SDS011;52025;50.288;2.794;2023-06-01T13:46:07;12.75;;;6.65;;
65092;SDS011;52025;50.288;2.794;2023-06-01T13:48:35;14.23;;;7.85;;
65092;SDS011;52025;50.288;2.794;2023-06-01T14:00:20;13.77;;;6.47;;
65092;SDS011;52025;50.288;2.794;2023-06-01T14:02:47;13.73;;;7.55;;
65092;SDS011;52025;50.288;2.794;2023-06-01T14:05:13;17.95;;;9.93;;
65092;SDS011;52025;50.288;2.794;2023-06-01T14:07:45;4.00;;;1.73;;
65092;SDS011;52025;50.288;2.794;2023-06-01T14:10:14;11.60;;;7.00;;
65092;SDS011;52025;50.288;2.794;2023-06-01T14:12:41;18.95;;;9.88;;
65092;SDS011;52025;50.288;2.794;2023-06-01T14:15:10;17.60;;;8.93;;
65092;SDS011;52025;50.288;2.794;2023-06-01T14:17:53;16.45;;;8.90;;
65092;SDS011;52025;50.288;2.794;2023-06-01T14:20:23;14.45;;;7.22;;
65092;SDS011;52025;50.288;2.794;2023-06-01T14:22:54;18.08;;;9.45;;
65092;SDS011;52025;50.288;2.794;2023-06-01T14:25:27;8.82;;;5.30;;
65092;SDS011;52025;50.288;2.794;2023-06-01T14:27:56;15.77;;;10.23;;
65092;SDS011;52025;50.288;2.794;2023-06-01T14:30:21;15.15;;;8.57;;
65092;SDS011;52025;50.288;2.794;2023-06-01T14:32:58;10.30;;;5.13;;
65092;SDS011;52025;50.288;2.794;2023-06-01T14:35:24;20.17;;;9.70;;
65092;SDS011;52025;50.288;2.794;2023-06-01T14:37:54;12.32;;;6.88;;
65092;SDS011;52025;50.288;2.794;2023-06-01T14:40:22;12.32;;;5.68;;
65092;SDS011;52025;50.288;2.794;2023-06-01T14:45:36;13.50;;;7.63;;
65092;SDS011;52025;50.288;2.794;2023-06-01T14:48:17;15.57;;;7.57;;
65092;SDS011;52025;50.288;2.794;2023-06-01T14:50:42;8.77;;;5.05;;
65092;SDS011;52025;50.288;2.794;2023-06-01T14:53:17;11.70;;;6.57;;
65092;SDS011;52025;50.288;2.794;2023-06-01T14:55:50;18.00;;;9.63;;
65092;SDS011;52025;50.288;2.794;2023-06-01T14:58:18;3.75;;;2.15;;
65092;SDS011;52025;50.288;2.794;2023-06-01T15:00:43;9.13;;;4.15;;
65092;SDS011;52025;50.288;2.794;2023-06-01T15:03:15;7.47;;;3.03;;
65092;SDS011;52025;50.288;2.794;2023-06-01T15:05:45;15.00;;;8.00;;
65092;SDS011;52025;50.288;2.794;2023-06-01T15:17:36;19.13;;;7.88;;
65092;SDS011;52025;50.288;2.794;2023-06-01T15:26:11;9.07;;;4.70;;
65092;SDS011;52025;50.288;2.794;2023-06-01T15:28:37;13.80;;;5.65;;
65092;SDS011;52025;50.288;2.794;2023-06-01T15:37:36;15.90;;;7.05;;
65092;SDS011;52025;50.288;2.794;2023-06-01T15:52:35;9.65;;;4.78;;
65092;SDS011;52025;50.288;2.794;2023-06-01T15:55:32;16.55;;;6.00;;
65092;SDS011;52025;50.288;2.794;2023-06-01T15:58:15;12.48;;;5.00;;
65092;SDS011;52025;50.288;2.794;2023-06-01T16:04:13;8.40;;;3.63;;
65092;SDS011;52025;50.288;2.794;2023-06-01T16:06:43;10.43;;;5.10;;
65092;SDS011;52025;50.288;2.794;2023-06-01T16:09:12;8.15;;;2.38;;
65092;SDS011;52025;50.288;2.794;2023-06-01T16:11:40;11.68;;;5.40;;
65092;SDS011;52025;50.288;2.794;2023-06-01T16:15:09;7.38;;;3.78;;
65092;SDS011;52025;50.288;2.794;2023-06-01T16:19:44;15.13;;;5.07;;
65092;SDS011;52025;50.288;2.794;2023-06-01T16:22:12;12.02;;;4.80;;
65092;SDS011;52025;50.288;2.794;2023-06-01T16:24:40;9.20;;;4.65;;
65092;SDS011;52025;50.288;2.794;2023-06-01T16:27:11;9.32;;;4.18;;
65092;SDS011;52025;50.288;2.794;2023-06-01T16:35:57;8.93;;;3.78;;
65092;SDS011;52025;50.288;2.794;2023-06-01T16:41:26;8.43;;;3.35;;
65092;SDS011;52025;50.288;2.794;2023-06-01T16:53:07;17.15;;;4.63;;
65092;SDS011;52025;50.288;2.794;2023-06-01T16:55:43;10.40;;;4.28;;
65092;SDS011;52025;50.288;2.794;2023-06-01T16:58:08;9.85;;;3.20;;
65092;SDS011;52025;50.288;2.794;2023-06-01T17:04:14;10.73;;;3.80;;
65092;SDS011;52025;50.288;2.794;2023-06-01T17:12:41;11.23;;;3.90;;
65092;SDS011;52025;50.288;2.794;2023-06-01T17:15:29;7.22;;;3.67;;
65092;SDS011;52025;50.288;2.794;2023-06-01T17:17:55;12.70;;;3.10;;
65092;SDS011;52025;50.288;2.794;2023-06-01T17:20:26;9.05;;;3.55;;
65092;SDS011;52025;50.288;2.794;2023-06-01T17:23:02;6.43;;;2.50;;
65092;SDS011;52025;50.288;2.794;2023-06-01T17:25:28;6.47;;;2.17;;
65092;SDS011;52025;50.288;2.794;2023-06-01T17:28:20;11.90;;;4.53;;
65092;SDS011;52025;50.288;2.794;2023-06-01T17:30:45;7.82;;;3.35;;
65092;SDS011;52025;50.288;2.794;2023-06-01T17:33:14;12.25;;;3.60;;
65092;SDS011;52025;50.288;2.794;2023-06-01T17:39:16;7.18;;;3.40;;
65092;SDS011;52025;50.288;2.794;2023-06-01T17:41:46;11.68;;;3.28;;
65092;SDS011;52025;50.288;2.794;2023-06-01T17:44:14;5.15;;;2.00;;
65092;SDS011;52025;50.288;2.794;2023-06-01T17:46:39;6.80;;;3.55;;
65092;SDS011;52025;50.288;2.794;2023-06-01T17:49:17;8.60;;;3.08;;
65092;SDS011;52025;50.288;2.794;2023-06-01T17:51:48;10.73;;;3.05;;
65092;SDS011;52025;50.288;2.794;2023-06-01T17:54:16;6.78;;;2.50;;
65092;SDS011;52025;50.288;2.794;2023-06-01T17:56:41;9.85;;;3.58;;
65092;SDS011;52025;50.288;2.794;2023-06-01T17:59:13;10.13;;;3.72;;
65092;SDS011;52025;50.288;2.794;2023-06-01T18:01:46;3.85;;;1.73;;
65092;SDS011;52025;50.288;2.794;2023-06-01T18:07:20;6.93;;;2.60;;
65092;SDS011;52025;50.288;2.794;2023-06-01T18:09:57;3.60;;;1.60;;
65092;SDS011;52025;50.288;2.794;2023-06-01T18:15:43;8.13;;;2.78;;
65092;SDS011;52025;50.288;2.794;2023-06-01T18:18:27;6.57;;;2.25;;
65092;SDS011;52025;50.288;2.794;2023-06-01T18:20:55;6.47;;;2.65;;
65092;SDS011;52025;50.288;2.794;2023-06-01T18:23:23;7.35;;;1.80;;
65092;SDS011;52025;50.288;2.794;2023-06-01T18:25:57;5.88;;;2.08;;
65092;SDS011;52025;50.288;2.794;2023-06-01T18:28:23;4.63;;;2.25;;
65092;SDS011;52025;50.288;2.794;2023-06-01T18:30:56;3.10;;;1.55;;
65092;SDS011;52025;50.288;2.794;2023-06-01T18:33:24;7.38;;;2.17;;
65092;SDS011;52025;50.288;2.794;2023-06-01T18:35:49;5.72;;;2.13;;
65092;SDS011;52025;50.288;2.794;2023-06-01T18:38:21;5.60;;;2.30;;
65092;SDS011;52025;50.288;2.794;2023-06-01T18:41:07;7.22;;;2.92;;
65092;SDS011;52025;50.288;2.794;2023-06-01T18:43:49;9.27;;;2.67;;
65092;SDS011;52025;50.288;2.794;2023-06-01T18:46:29;6.68;;;2.50;;
65092;SDS011;52025;50.288;2.794;2023-06-01T18:49:00;6.20;;;2.60;;
65092;SDS011;52025;50.288;2.794;2023-06-01T18:51:45;6.22;;;2.25;;
65092;SDS011;52025;50.288;2.794;2023-06-01T19:01:14;5.53;;;2.40;;
65092;SDS011;52025;50.288;2.794;2023-06-01T19:09:56;5.57;;;2.00;;
65092;SDS011;52025;50.288;2.794;2023-06-01T19:12:24;6.10;;;2.03;;
65092;SDS011;52025;50.288;2.794;2023-06-01T19:15:24;6.90;;;2.10;;
65092;SDS011;52025;50.288;2.794;2023-06-01T19:18:12;4.93;;;1.60;;
65092;SDS011;52025;50.288;2.794;2023-06-01T19:29:27;6.03;;;1.25;;
65092;SDS011;52025;50.288;2.794;2023-06-01T20:11:59;6.10;;;2.08;;
65092;SDS011;52025;50.288;2.794;2023-06-01T20:17:37;6.20;;;1.83;;
65092;SDS011;52025;50.288;2.794;2023-06-01T20:21:03;3.87;;;1.70;;
65092;SDS011;52025;50.288;2.794;2023-06-01T20:26:36;6.60;;;1.80;;
65092;SDS011;52025;50.288;2.794;2023-06-01T20:32:52;5.80;;;1.95;;
65092;SDS011;52025;50.288;2.794;2023-06-01T20:41:36;3.83;;;1.55;;
65092;SDS011;52025;50.288;2.794;2023-06-01T20:44:27;5.78;;;2.22;;
65092;SDS011;52025;50.288;2.794;2023-06-01T20:47:23;4.55;;;1.73;;
65092;SDS011;52025;50.288;2.794;2023-06-01T20:50:18;4.35;;;1.98;;
65092;SDS011;52025;50.288;2.794;2023-06-01T21:05:54;5.07;;;1.70;;
65092;SDS011;52025;50.288;2.794;2023-06-01T21:08:22;3.97;;;1.70;;
65092;SDS011;52025;50.288;2.794;2023-06-01T21:11:14;4.00;;;1.45;;
65092;SDS011;52025;50.288;2.794;2023-06-01T21:13:54;4.20;;;1.67;;
65092;SDS011;52025;50.288;2.794;2023-06-01T21:22:38;7.03;;;2.50;;
65092;SDS011;52025;50.288;2.794;2023-06-01T21:28:16;5.70;;;2.00;;
65092;SDS011;52025;50.288;2.794;2023-06-01T21:30:53;8.55;;;2.22;;
65092;SDS011;52025;50.288;2.794;2023-06-01T21:36:38;5.45;;;2.08;;
65092;SDS011;52025;50.288;2.794;2023-06-01T21:45:30;6.45;;;2.40;;
65092;SDS011;52025;50.288;2.794;2023-06-01T21:51:29;6.67;;;2.77;;
65092;SDS011;52025;50.288;2.794;2023-06-01T21:57:30;6.30;;;2.60;;
